createdAt,value
2023-02-06T00:02:07.531Z,67.26
2023-02-06T00:04:37.959Z,65.46
2023-02-06T00:07:08.186Z,65.01
2023-02-06T00:09:38.375Z,66.95
2023-02-06T00:12:08.554Z,67.45
2023-02-06T00:14:39.166Z,64.56
2023-02-06T00:17:09.335Z,63.79
2023-02-06T00:19:40.094Z,63.01
2023-02-06T00:22:11.713Z,62.61
2023-02-06T00:24:45.090Z,62.60
2023-02-06T00:27:15.504Z,62.39
2023-02-06T00:29:45.862Z,62.17
2023-02-06T00:32:16.692Z,61.98
2023-02-06T00:34:46.904Z,61.94
2023-02-06T00:37:18.832Z,62.10
2023-02-06T00:39:49.387Z,61.85
2023-02-06T00:42:19.462Z,61.77
2023-02-06T00:44:50.095Z,61.27
2023-02-06T00:47:20.338Z,61.47
2023-02-06T00:49:50.326Z,61.43
2023-02-06T00:52:22.349Z,61.30
2023-02-06T00:54:55.315Z,60.93
2023-02-06T00:57:25.508Z,61.20
2023-02-06T00:59:55.952Z,60.75
2023-02-06T01:02:26.174Z,61.09
2023-02-06T01:04:56.462Z,61.12
2023-02-06T01:07:26.639Z,61.05
2023-02-06T01:09:57.356Z,60.91
2023-02-06T01:12:28.732Z,61.00
2023-02-06T01:14:59.198Z,60.38
2023-02-06T01:17:29.713Z,60.31
2023-02-06T01:20:00.663Z,60.58
2023-02-06T01:22:30.809Z,60.44
2023-02-06T01:25:00.851Z,60.40
2023-02-06T01:27:30.962Z,60.39
2023-02-06T01:30:01.506Z,60.20
2023-02-06T01:32:32.513Z,59.88
2023-02-06T01:35:02.565Z,59.82
2023-02-06T01:37:32.720Z,59.76
2023-02-06T01:40:03.074Z,60.06
2023-02-06T01:42:35.797Z,59.73
2023-02-06T01:45:25.001Z,59.91
2023-02-06T01:48:01.550Z,59.52
2023-02-06T01:50:33.568Z,59.93
2023-02-06T01:53:04.421Z,59.49
2023-02-06T01:55:36.273Z,59.90
2023-02-06T01:58:07.029Z,59.62
2023-02-06T02:00:37.397Z,59.40
2023-02-06T02:03:07.944Z,59.82
2023-02-06T02:05:40.214Z,59.22
2023-02-06T02:08:13.908Z,59.18
2023-02-06T02:10:44.071Z,59.56
2023-02-06T02:13:14.144Z,59.03
2023-02-06T02:16:04.394Z,59.45
2023-02-06T02:18:40.394Z,59.01
2023-02-06T02:21:13.413Z,59.38
2023-02-06T02:24:10.532Z,59.41
2023-02-06T02:26:53.646Z,58.89
2023-02-06T02:29:27.899Z,59.33
2023-02-06T02:32:12.163Z,59.13
2023-02-06T02:34:54.383Z,59.11
2023-02-06T02:37:32.658Z,59.21
2023-02-06T02:40:25.716Z,59.08
2023-02-06T02:42:59.594Z,59.14
2023-02-06T02:45:34.857Z,58.84
2023-02-06T02:48:05.080Z,58.94
2023-02-06T02:50:36.537Z,58.52
2023-02-06T02:53:06.958Z,58.95
2023-02-06T02:55:37.583Z,58.41
2023-02-06T02:58:11.095Z,58.87
2023-02-06T03:00:43.175Z,58.87
2023-02-06T03:03:15.567Z,58.25
2023-02-06T03:06:08.810Z,58.72
2023-02-06T03:08:53.417Z,58.15
2023-02-06T03:11:26.068Z,58.28
2023-02-06T03:14:04.163Z,58.59
2023-02-06T03:16:34.277Z,58.11
2023-02-06T03:19:07.618Z,58.44
2023-02-06T03:21:38.465Z,58.00
2023-02-06T03:24:22.870Z,57.75
2023-02-06T03:26:56.579Z,57.87
2023-02-06T03:29:27.675Z,57.60
2023-02-06T03:32:00.100Z,57.55
2023-02-06T03:34:36.004Z,57.89
2023-02-06T03:37:06.585Z,57.71
2023-02-06T03:39:36.961Z,57.40
2023-02-06T03:42:07.988Z,57.89
2023-02-06T03:44:41.615Z,57.38
2023-02-06T03:47:13.061Z,57.56
2023-02-06T03:49:44.676Z,57.77
2023-02-06T03:52:17.761Z,57.65
2023-02-06T03:54:51.155Z,57.37
2023-02-06T03:57:23.249Z,57.25
2023-02-06T03:59:57.104Z,57.00
2023-02-06T04:02:27.719Z,57.38
2023-02-06T04:04:57.882Z,57.33
2023-02-06T04:07:29.468Z,57.31
2023-02-06T04:09:59.657Z,57.00
2023-02-06T04:12:29.824Z,56.70
2023-02-06T04:15:02.941Z,56.80
2023-02-06T04:17:49.674Z,56.75
2023-02-06T04:20:20.608Z,56.64
2023-02-06T04:22:51.854Z,56.79
2023-02-06T04:25:22.424Z,56.83
2023-02-06T04:27:52.664Z,56.56
2023-02-06T04:30:22.962Z,56.24
2023-02-06T04:32:56.053Z,56.29
2023-02-06T04:35:26.832Z,55.90
2023-02-06T04:37:57.027Z,55.79
2023-02-06T04:40:27.129Z,55.96
2023-02-06T04:42:57.238Z,55.86
2023-02-06T04:45:29.889Z,56.00
2023-02-06T04:47:59.979Z,55.75
2023-02-06T04:50:32.778Z,56.14
2023-02-06T04:53:02.996Z,55.59
2023-02-06T04:55:33.172Z,55.67
2023-02-06T04:58:03.358Z,56.07
2023-02-06T05:00:33.985Z,55.28
2023-02-06T05:03:04.503Z,55.30
2023-02-06T05:05:34.916Z,55.48
2023-02-06T05:08:08.186Z,55.68
2023-02-06T05:10:38.260Z,55.51
2023-02-06T05:13:09.324Z,55.65
2023-02-06T05:15:39.675Z,55.23
2023-02-06T05:18:09.831Z,55.40
2023-02-06T05:20:40.119Z,54.97
2023-02-06T05:23:10.242Z,55.39
2023-02-06T05:25:43.531Z,55.09
2023-02-06T05:28:13.663Z,55.46
2023-02-06T05:30:44.051Z,54.98
2023-02-06T05:33:14.741Z,55.27
2023-02-06T05:35:44.859Z,54.80
2023-02-06T05:38:15.052Z,54.95
2023-02-06T05:40:48.202Z,54.64
2023-02-06T05:43:18.428Z,54.60
2023-02-06T05:45:48.745Z,54.71
2023-02-06T05:48:18.974Z,54.80
2023-02-06T05:50:52.205Z,54.83
2023-02-06T05:53:22.805Z,54.65
2023-02-06T05:55:53.021Z,54.73
2023-02-06T05:58:23.205Z,54.42
2023-02-06T06:00:59.737Z,54.06
2023-02-06T06:03:33.085Z,54.57
2023-02-06T06:06:03.554Z,54.34
2023-02-06T06:08:33.720Z,54.14
2023-02-06T06:11:04.237Z,54.41
2023-02-06T06:13:34.339Z,53.95
2023-02-06T06:16:04.617Z,54.09
2023-02-06T06:18:35.228Z,54.05
2023-02-06T06:21:08.989Z,54.08
2023-02-06T06:23:39.382Z,53.93
2023-02-06T06:26:09.620Z,53.90
2023-02-06T06:28:40.272Z,54.10
2023-02-06T06:31:13.251Z,53.78
2023-02-06T06:33:43.569Z,53.86
2023-02-06T06:36:14.713Z,53.41
2023-02-06T06:39:10.582Z,53.68
2023-02-06T06:41:41.910Z,53.31
2023-02-06T06:44:12.383Z,53.53
2023-02-06T06:46:45.353Z,53.34
2023-02-06T06:49:15.494Z,53.58
2023-02-06T06:51:45.546Z,53.28
2023-02-06T06:54:16.849Z,53.06
2023-02-06T06:56:47.323Z,53.28
2023-02-06T06:59:17.568Z,53.05
2023-02-06T07:01:47.806Z,53.08
2023-02-06T07:04:18.060Z,53.06
2023-02-06T07:06:48.230Z,53.15
2023-02-06T07:09:18.440Z,52.98
2023-02-06T07:11:48.519Z,52.92
2023-02-06T07:14:19.561Z,53.11
2023-02-06T07:16:49.740Z,52.68
2023-02-06T07:19:19.992Z,52.67
2023-02-06T07:21:50.359Z,52.95
2023-02-06T07:24:20.528Z,52.49
2023-02-06T07:26:50.821Z,52.70
2023-02-06T07:29:21.432Z,52.66
2023-02-06T07:31:51.726Z,52.77
2023-02-06T07:34:22.246Z,52.85
2023-02-06T07:36:53.005Z,52.52
2023-02-06T07:39:23.259Z,52.37
2023-02-06T07:41:53.524Z,52.46
2023-02-06T07:44:24.577Z,52.17
2023-02-06T07:46:54.721Z,52.42
2023-02-06T07:49:25.030Z,52.08
2023-02-06T07:51:55.197Z,52.32
2023-02-06T07:54:25.726Z,52.14
2023-02-06T07:56:58.824Z,52.11
2023-02-06T07:59:29.273Z,51.89
2023-02-06T08:01:59.431Z,52.02
2023-02-06T08:04:36.545Z,51.96
2023-02-06T08:07:07.138Z,52.05
2023-02-06T08:09:37.274Z,51.84
2023-02-06T08:12:07.656Z,51.93
2023-02-06T08:14:37.831Z,51.84
2023-02-06T08:17:10.839Z,51.73
2023-02-06T08:19:41.307Z,51.60
2023-02-06T08:22:12.745Z,51.93
2023-02-06T08:24:42.880Z,51.58
2023-02-06T08:27:13.012Z,51.60
2023-02-06T08:29:44.170Z,51.69
2023-02-06T08:32:14.667Z,51.46
2023-02-06T08:34:44.745Z,51.23
2023-02-06T08:37:15.256Z,51.40
2023-02-06T08:39:45.904Z,51.50
2023-02-06T08:42:16.088Z,51.30
2023-02-06T08:44:46.240Z,51.31
2023-02-06T08:47:17.646Z,51.22
2023-02-06T08:49:47.867Z,51.35
2023-02-06T08:52:18.246Z,51.35
2023-02-06T08:54:48.361Z,51.38
2023-02-06T08:57:18.443Z,51.31
2023-02-06T08:59:48.582Z,51.23
2023-02-06T09:02:18.905Z,51.07
2023-02-06T09:04:49.425Z,51.16
2023-02-06T09:07:19.550Z,51.10
2023-02-06T09:09:49.639Z,50.97
2023-02-06T09:12:20.078Z,50.97
2023-02-06T09:14:51.104Z,50.96
2023-02-06T09:17:25.376Z,50.89
2023-02-06T09:19:55.726Z,51.43
2023-02-06T09:22:26.035Z,52.56
2023-02-06T09:24:56.567Z,53.37
2023-02-06T09:27:27.035Z,53.81
2023-02-06T09:29:57.604Z,53.96
2023-02-06T09:32:27.716Z,54.12
2023-02-06T09:34:58.517Z,54.41
2023-02-06T09:37:29.067Z,54.36
2023-02-06T09:39:59.231Z,54.34
2023-02-06T09:42:29.370Z,54.72
2023-02-06T09:45:07.777Z,54.78
2023-02-06T09:47:41.510Z,54.67
2023-02-06T09:50:25.767Z,54.96
2023-02-06T09:53:10.583Z,55.02
2023-02-06T09:55:40.713Z,54.87
2023-02-06T09:58:10.829Z,54.93
2023-02-06T10:00:46.869Z,54.77
2023-02-06T10:03:22.867Z,54.72
2023-02-06T10:06:06.755Z,55.08
2023-02-06T10:08:37.179Z,55.69
2023-02-06T10:11:12.676Z,55.08
2023-02-06T10:13:46.419Z,53.76
2023-02-06T10:16:37.042Z,53.23
2023-02-06T10:19:14.587Z,52.99
2023-02-06T10:21:48.680Z,53.09
2023-02-06T10:24:27.922Z,53.01
2023-02-06T10:27:00.978Z,52.77
2023-02-06T10:29:33.541Z,53.00
2023-02-06T10:32:04.205Z,53.37
2023-02-06T10:34:40.281Z,53.86
2023-02-06T10:37:17.766Z,53.63
2023-02-06T10:40:00.706Z,53.46
2023-02-06T10:42:53.477Z,54.49
2023-02-06T10:45:34.595Z,55.54
2023-02-06T10:48:04.933Z,56.91
2023-02-06T10:50:53.033Z,56.02
2023-02-06T10:53:27.272Z,55.23
2023-02-06T10:56:10.114Z,54.64
2023-02-06T10:58:43.156Z,54.54
2023-02-06T11:01:25.743Z,54.38
2023-02-06T11:04:16.381Z,54.24
2023-02-06T11:06:48.352Z,55.02
2023-02-06T11:09:18.601Z,55.48
2023-02-06T11:11:52.789Z,56.23
2023-02-06T11:14:28.032Z,55.85
2023-02-06T11:17:00.711Z,55.81
2023-02-06T11:19:32.137Z,56.39
2023-02-06T11:22:17.078Z,56.58
2023-02-06T11:25:05.543Z,56.46
2023-02-06T11:27:36.701Z,56.47
2023-02-06T11:30:23.076Z,56.21
2023-02-06T11:33:04.349Z,56.29
2023-02-06T11:35:47.930Z,55.88
2023-02-06T11:38:22.198Z,55.96
2023-02-06T11:40:57.352Z,55.58
2023-02-06T11:43:28.126Z,55.44
2023-02-06T11:46:30.559Z,55.46
2023-02-06T11:49:02.062Z,55.09
2023-02-06T11:51:49.089Z,55.01
2023-02-06T11:54:22.232Z,55.21
2023-02-06T11:57:09.351Z,55.20
2023-02-06T11:59:51.223Z,55.06
2023-02-06T12:02:32.553Z,55.02
2023-02-06T12:05:12.763Z,55.02
2023-02-06T12:07:43.047Z,55.40
2023-02-06T12:10:17.673Z,55.95
2023-02-06T12:13:08.777Z,56.42
2023-02-06T12:15:48.850Z,56.32
2023-02-06T12:18:39.777Z,56.65
2023-02-06T12:21:18.333Z,56.71
2023-02-06T12:23:56.712Z,56.38
2023-02-06T12:26:30.203Z,56.21
2023-02-06T12:29:11.210Z,56.37
2023-02-06T12:32:01.493Z,57.47
2023-02-06T12:35:04.895Z,58.09
2023-02-06T12:37:41.721Z,58.51
2023-02-06T12:40:29.972Z,58.81
2023-02-06T12:43:04.695Z,59.33
2023-02-06T12:46:11.088Z,59.48
2023-02-06T12:48:41.315Z,59.62
2023-02-06T12:51:21.274Z,59.69
2023-02-06T12:53:58.022Z,59.84
2023-02-06T12:56:28.238Z,59.40
2023-02-06T12:58:59.324Z,59.88
2023-02-06T13:01:35.638Z,59.70
2023-02-06T13:04:11.573Z,59.80
2023-02-06T13:06:51.011Z,60.92
2023-02-06T13:09:32.710Z,60.95
2023-02-06T13:12:10.818Z,61.44
2023-02-06T13:14:47.280Z,62.42
2023-02-06T13:17:20.021Z,62.49
2023-02-06T13:19:50.550Z,62.49
2023-02-06T13:22:25.282Z,62.80
2023-02-06T13:24:59.462Z,62.53
2023-02-06T13:27:40.529Z,62.83
2023-02-06T13:30:19.486Z,63.14
2023-02-06T13:32:51.512Z,63.08
2023-02-06T13:35:23.591Z,63.32
2023-02-06T13:38:12.082Z,62.70
2023-02-06T13:40:42.232Z,63.13
2023-02-06T13:43:12.688Z,63.00
2023-02-06T13:46:00.917Z,63.15
2023-02-06T13:48:31.241Z,63.02
2023-02-06T13:51:06.549Z,63.25
2023-02-06T13:53:59.217Z,62.99
2023-02-06T13:56:47.839Z,63.69
2023-02-06T13:59:30.347Z,63.55
2023-02-06T14:02:05.733Z,60.05
2023-02-06T14:04:35.943Z,57.38
2023-02-06T14:07:24.084Z,56.09
2023-02-06T14:10:06.682Z,54.07
2023-02-06T14:12:55.147Z,52.93
2023-02-06T14:15:33.104Z,51.87
2023-02-06T14:18:09.277Z,51.32
2023-02-06T14:20:54.944Z,49.60
2023-02-06T14:23:45.397Z,49.88
2023-02-06T14:26:16.009Z,48.34
2023-02-06T14:28:49.229Z,50.00
2023-02-06T14:31:22.513Z,48.91
2023-02-06T14:34:09.223Z,48.43
2023-02-06T14:36:39.363Z,47.20
2023-02-06T14:39:27.954Z,46.91
2023-02-06T14:41:58.761Z,46.26
2023-02-06T14:44:32.324Z,45.86
2023-02-06T14:47:02.459Z,45.71
2023-02-06T14:49:34.606Z,44.94
2023-02-06T14:52:05.092Z,44.81
2023-02-06T14:54:38.022Z,44.41
2023-02-06T14:57:17.856Z,44.12
2023-02-06T15:00:05.823Z,43.95
2023-02-06T15:02:37.005Z,43.75
2023-02-06T15:05:07.364Z,44.06
2023-02-06T15:07:40.173Z,43.71
2023-02-06T15:10:12.399Z,43.90
2023-02-06T15:12:42.676Z,46.78
2023-02-06T15:15:23.837Z,49.25
2023-02-06T15:18:01.389Z,48.83
2023-02-06T15:20:49.945Z,47.74
2023-02-06T15:23:25.269Z,46.10
2023-02-06T15:25:58.287Z,45.58
2023-02-06T15:28:30.198Z,45.23
2023-02-06T15:31:01.483Z,44.36
2023-02-06T15:33:33.545Z,43.95
2023-02-06T15:36:04.836Z,43.34
2023-02-06T15:38:35.877Z,43.57
2023-02-06T15:41:08.015Z,42.90
2023-02-06T15:43:38.386Z,42.58
2023-02-06T15:46:11.979Z,42.23
2023-02-06T15:48:43.720Z,42.21
2023-02-06T15:51:22.902Z,42.00
2023-02-06T15:53:54.424Z,42.00
2023-02-06T15:56:24.649Z,42.17
2023-02-06T15:59:02.606Z,42.31
2023-02-06T16:01:37.462Z,41.85
2023-02-06T16:04:10.130Z,41.59
2023-02-06T16:06:40.391Z,41.37
2023-02-06T16:09:20.430Z,41.72
2023-02-06T16:11:52.989Z,42.43
2023-02-06T16:14:33.412Z,42.60
2023-02-06T16:17:05.725Z,42.41
2023-02-06T16:19:55.443Z,42.74
2023-02-06T16:22:28.435Z,42.98
2023-02-06T16:25:14.731Z,42.70
2023-02-06T16:27:47.095Z,42.41
2023-02-06T16:30:22.061Z,42.13
2023-02-06T16:32:53.565Z,42.21
2023-02-06T16:35:25.200Z,41.96
2023-02-06T16:37:56.061Z,41.53
2023-02-06T16:40:27.567Z,41.70
2023-02-06T16:42:57.723Z,41.38
2023-02-06T16:45:28.841Z,41.38
2023-02-06T16:47:58.911Z,41.20
2023-02-06T16:50:29.088Z,41.41
2023-02-06T16:53:01.899Z,41.36
2023-02-06T16:55:32.020Z,41.10
2023-02-06T16:58:02.838Z,41.48
2023-02-06T17:00:33.938Z,41.26
2023-02-06T17:03:04.148Z,41.35
2023-02-06T17:05:38.648Z,41.42
2023-02-06T17:08:19.735Z,41.81
2023-02-06T17:10:50.288Z,41.30
2023-02-06T17:13:21.636Z,41.46
2023-02-06T17:15:54.461Z,41.77
2023-02-06T17:18:25.582Z,41.65
2023-02-06T17:20:57.720Z,41.63
2023-02-06T17:23:27.804Z,41.95
2023-02-06T17:25:57.961Z,41.87
2023-02-06T17:28:28.270Z,41.71
2023-02-06T17:30:58.578Z,41.85
2023-02-06T17:33:29.164Z,41.93
2023-02-06T17:35:59.291Z,42.02
2023-02-06T17:38:29.366Z,42.08
2023-02-06T17:40:59.514Z,41.98
2023-02-06T17:43:31.037Z,41.87
2023-02-06T17:46:01.131Z,42.28
2023-02-06T17:48:31.194Z,41.92
2023-02-06T17:51:01.255Z,41.96
2023-02-06T17:53:31.351Z,41.86
2023-02-06T17:56:08.834Z,42.23
2023-02-06T17:58:38.868Z,41.80
2023-02-06T18:01:12.882Z,42.08
2023-02-06T18:03:43.230Z,41.71
2023-02-06T18:06:13.390Z,42.16
2023-02-06T18:08:50.706Z,41.99
2023-02-06T18:11:22.868Z,41.91
2023-02-06T18:13:53.130Z,41.81
2023-02-06T18:16:24.886Z,41.89
2023-02-06T18:18:56.104Z,42.06
2023-02-06T18:21:26.195Z,41.94
2023-02-06T18:23:56.286Z,41.90
2023-02-06T18:26:26.450Z,41.81
2023-02-06T18:28:56.520Z,41.42
2023-02-06T18:31:26.557Z,41.77
2023-02-06T18:33:57.346Z,41.74
2023-02-06T18:36:28.166Z,41.74
2023-02-06T18:38:58.446Z,41.59
2023-02-06T18:41:46.997Z,41.64
2023-02-06T18:44:17.069Z,41.76
2023-02-06T18:46:47.165Z,41.70
2023-02-06T18:49:20.284Z,41.68
2023-02-06T18:51:50.316Z,41.60
2023-02-06T18:54:20.359Z,41.24
2023-02-06T18:56:50.382Z,41.66
2023-02-06T18:59:20.393Z,41.89
2023-02-06T19:01:50.621Z,41.43
2023-02-06T19:04:21.256Z,41.80
2023-02-06T19:06:51.495Z,41.81
2023-02-06T19:09:21.584Z,41.82
2023-02-06T19:11:51.743Z,41.70
2023-02-06T19:14:23.985Z,41.71
2023-02-06T19:16:55.830Z,41.65
2023-02-06T19:19:26.104Z,41.89
2023-02-06T19:21:57.644Z,41.64
2023-02-06T19:24:29.281Z,41.79
2023-02-06T19:26:59.959Z,41.92
2023-02-06T19:29:35.718Z,42.02
2023-02-06T19:32:07.562Z,42.23
2023-02-06T19:34:41.302Z,42.66
2023-02-06T19:37:12.174Z,42.77
2023-02-06T19:39:44.530Z,42.80
2023-02-06T19:42:18.384Z,42.96
2023-02-06T19:44:48.430Z,43.25
2023-02-06T19:47:18.520Z,43.53
2023-02-06T19:49:50.804Z,43.51
2023-02-06T19:52:21.558Z,43.49
2023-02-06T19:54:51.703Z,43.59
2023-02-06T19:57:22.073Z,43.90
2023-02-06T19:59:52.100Z,43.71
2023-02-06T20:02:22.380Z,43.98
2023-02-06T20:04:52.483Z,43.71
2023-02-06T20:07:22.537Z,43.84
2023-02-06T20:09:53.707Z,44.06
2023-02-06T20:12:24.131Z,44.05
2023-02-06T20:14:54.270Z,44.18
2023-02-06T20:17:25.259Z,44.06
2023-02-06T20:19:55.433Z,43.84
2023-02-06T20:22:25.456Z,44.34
2023-02-06T20:24:55.512Z,44.23
2023-02-06T20:27:25.628Z,44.00
2023-02-06T20:29:56.116Z,44.25
2023-02-06T20:32:26.244Z,44.13
2023-02-06T20:34:56.278Z,44.24
2023-02-06T20:37:26.477Z,44.44
2023-02-06T20:39:56.593Z,44.34
2023-02-06T20:42:28.458Z,44.40
2023-02-06T20:44:58.481Z,44.43
2023-02-06T20:47:28.558Z,44.52
2023-02-06T20:50:01.826Z,44.49
2023-02-06T20:52:31.872Z,44.13
2023-02-06T20:55:01.956Z,44.43
2023-02-06T20:57:34.081Z,44.30
2023-02-06T21:00:09.571Z,44.36
2023-02-06T21:02:40.074Z,44.42
2023-02-06T21:05:10.191Z,44.35
2023-02-06T21:07:41.667Z,44.25
2023-02-06T21:10:11.995Z,44.29
2023-02-06T21:12:42.093Z,44.43
2023-02-06T21:15:12.730Z,44.17
2023-02-06T21:17:42.752Z,44.50
2023-02-06T21:20:13.115Z,44.41
2023-02-06T21:22:43.499Z,44.55
2023-02-06T21:25:14.483Z,44.60
2023-02-06T21:27:44.598Z,44.56
2023-02-06T21:30:15.084Z,44.68
2023-02-06T21:32:45.172Z,44.83
2023-02-06T21:35:15.175Z,44.59
2023-02-06T21:37:45.219Z,44.88
2023-02-06T21:40:16.913Z,44.74
2023-02-06T21:42:46.989Z,44.68
2023-02-06T21:45:17.864Z,44.82
2023-02-06T21:47:48.690Z,44.96
2023-02-06T21:50:18.729Z,45.04
2023-02-06T21:52:48.767Z,44.91
2023-02-06T21:55:18.796Z,44.97
2023-02-06T21:57:48.803Z,45.17
2023-02-06T22:00:19.357Z,45.18
2023-02-06T22:02:49.399Z,45.14
2023-02-06T22:05:19.478Z,45.06
2023-02-06T22:07:49.641Z,45.32
2023-02-06T22:10:20.022Z,44.98
2023-02-06T22:12:50.751Z,45.03
2023-02-06T22:15:20.905Z,44.86
2023-02-06T22:17:51.028Z,44.84
2023-02-06T22:20:21.087Z,44.74
2023-02-06T22:22:51.130Z,45.12
2023-02-06T22:25:22.043Z,45.45
2023-02-06T22:27:52.180Z,45.44
2023-02-06T22:30:22.320Z,45.17
2023-02-06T22:32:52.522Z,44.97
2023-02-06T22:35:22.986Z,44.80
2023-02-06T22:37:53.045Z,44.85
2023-02-06T22:40:23.185Z,46.36
2023-02-06T22:42:53.267Z,48.19
2023-02-06T22:45:23.319Z,49.93
2023-02-06T22:47:53.551Z,51.28
2023-02-06T22:50:23.665Z,51.48
2023-02-06T22:53:11.814Z,52.84
2023-02-06T22:56:00.362Z,54.57
2023-02-06T22:58:30.544Z,52.60
2023-02-06T23:01:04.789Z,50.96
2023-02-06T23:03:34.884Z,51.54
2023-02-06T23:06:09.141Z,51.92
2023-02-06T23:08:39.485Z,52.00
2023-02-06T23:11:10.256Z,52.30
2023-02-06T23:13:40.654Z,52.47
2023-02-06T23:16:11.524Z,52.90
2023-02-06T23:18:41.942Z,53.23
2023-02-06T23:21:13.646Z,53.37
2023-02-06T23:23:44.514Z,53.28
2023-02-06T23:26:15.482Z,53.47
2023-02-06T23:28:45.633Z,53.70
2023-02-06T23:31:16.128Z,53.91
2023-02-06T23:33:46.595Z,54.09
2023-02-06T23:36:17.930Z,54.29
2023-02-06T23:38:49.406Z,54.73
2023-02-06T23:41:21.051Z,57.06
2023-02-06T23:43:52.536Z,60.42
2023-02-06T23:46:23.002Z,61.98
2023-02-06T23:48:53.619Z,62.95
2023-02-06T23:51:24.346Z,63.66
2023-02-06T23:53:54.600Z,64.02
2023-02-06T23:56:26.217Z,64.89
2023-02-06T23:58:57.365Z,64.80
